Sandstone, Minnesota
Current Conditions -  °F | °C
As of 9:26 PM on Friday 21 Nov 2014 (Local Time) from K04W Reporting Station
Clear Clear  
Wind Chill: 16°   Ceiling: Unl
Heat Index: 27°   Visibility: 10mi
Dew Point: 21°   Wind: 12mph
Humidity: 80%   Direction: 190°S
Pressure: 29.84"   Gusts: NA
Location:  46.13°N, 92.87°W
Report Text: K04W 220326Z AUTO 19010KT 10SM CLR M03/M06 A2984 RMK AO2
Loading
Personal Weather Stations






























Interactive Weather Map New forecast layout! Learn more

10-Day Weather Forecast

Advertisements
Track Severe Weather on mobile